Terminal Aerodrome Forecast
Issued by NWS Charleston, WV

Current Version | Previous Version | Graphics & Text | Print | Product List | Glossary On
Versions: 1 2 3 4 5 6 7 8 9 10 11 12 13 14 15 16 17 18 19 20 21 22 23 24 25 26 27
849
FTUS41 KRLX 231533 AAA
TAFBKW
TAF AMD
KBKW 231533Z 2316/2412 15020G32KT P6SM -SHRA BKN035 OVC080
     FM240000 13022G39KT P6SM OVC015
     FM240500 13020G30KT P6SM OVC015
     FM240900 12022KT P6SM OVC008=

USA.gov is the U.S. government's official web portal to all federal, state and local government web resources and services.